createdAt,value
2016-12-26T00:00:24.907Z,16.75
2016-12-26T00:01:35.489Z,16.78
2016-12-26T00:02:46.105Z,16.73
2016-12-26T00:03:56.691Z,16.76
2016-12-26T00:05:07.600Z,16.68
2016-12-26T00:06:18.505Z,16.73
2016-12-26T00:07:29.406Z,16.7
2016-12-26T00:08:40.391Z,16.76
2016-12-26T00:09:50.616Z,16.75
2016-12-26T00:11:01.178Z,16.75
2016-12-26T00:12:11.747Z,16.67
2016-12-26T00:13:22.644Z,16.7
2016-12-26T00:14:33.270Z,16.78
2016-12-26T00:15:44.167Z,16.78
2016-12-26T00:16:54.728Z,16.68
2016-12-26T00:18:05.637Z,16.73
2016-12-26T00:19:16.538Z,16.63
2016-12-26T00:20:27.147Z,16.66
2016-12-26T00:21:37.701Z,16.75
2016-12-26T00:22:48.270Z,16.71
2016-12-26T00:23:59.183Z,16.76
2016-12-26T00:25:10.097Z,16.75
2016-12-26T00:26:20.709Z,16.75
2016-12-26T00:27:31.271Z,16.68
2016-12-26T00:28:42.184Z,16.73
2016-12-26T00:29:52.741Z,16.73
2016-12-26T00:31:03.650Z,16.68
2016-12-26T00:32:14.403Z,16.67
2016-12-26T00:33:25.308Z,16.7
2016-12-26T00:34:35.878Z,16.63
2016-12-26T00:35:46.435Z,16.6
2016-12-26T00:36:57.340Z,16.61
2016-12-26T00:38:07.945Z,16.73
2016-12-26T00:39:18.854Z,16.71
2016-12-26T00:40:29.412Z,16.63
2016-12-26T00:41:39.981Z,16.67
2016-12-26T00:42:50.885Z,16.7
2016-12-26T00:44:01.847Z,16.71
2016-12-26T00:45:12.744Z,16.63
2016-12-26T00:46:23.310Z,16.68
2016-12-26T00:47:34.215Z,16.64
2016-12-26T00:48:44.784Z,16.58
2016-12-26T00:49:55.405Z,16.71
2016-12-26T00:51:05.970Z,16.73
2016-12-26T00:52:16.872Z,16.63
2016-12-26T00:53:27.125Z,16.63
2016-12-26T00:54:38.026Z,16.63
2016-12-26T00:55:48.983Z,16.61
2016-12-26T00:56:59.536Z,16.6
2016-12-26T00:58:10.446Z,16.6
2016-12-26T00:59:21.354Z,16.61
2016-12-26T01:00:32.264Z,16.71
2016-12-26T01:01:42.877Z,16.63
2016-12-26T01:02:53.790Z,16.6
2016-12-26T01:04:04.004Z,16.66
2016-12-26T01:05:14.565Z,16.61
2016-12-26T01:06:25.486Z,16.67
2016-12-26T01:07:36.459Z,16.6
2016-12-26T01:08:47.364Z,16.68
2016-12-26T01:09:58.277Z,16.57
2016-12-26T01:11:09.182Z,16.64
2016-12-26T01:12:20.104Z,16.58
2016-12-26T01:13:30.713Z,16.63
2016-12-26T01:14:41.286Z,16.66
2016-12-26T01:15:52.191Z,16.6
2016-12-26T01:17:02.756Z,16.7
2016-12-26T01:18:13.346Z,16.7
2016-12-26T01:19:24.302Z,16.66
2016-12-26T01:20:34.872Z,16.67
2016-12-26T01:21:45.777Z,16.61
2016-12-26T01:22:56.342Z,16.57
2016-12-26T01:24:06.563Z,16.6
2016-12-26T01:25:17.521Z,16.5
2016-12-26T01:26:28.434Z,16.64
2016-12-26T01:27:39.043Z,16.52
2016-12-26T01:28:49.952Z,16.58
2016-12-26T01:30:00.846Z,16.52
2016-12-26T01:31:11.271Z,16.52
2016-12-26T01:32:21.843Z,16.52
2016-12-26T01:33:32.761Z,16.56
2016-12-26T01:34:43.670Z,16.61
2016-12-26T01:35:54.587Z,16.61
2016-12-26T01:37:05.196Z,16.52
2016-12-26T01:38:16.098Z,16.57
2016-12-26T01:39:27.015Z,16.48
2016-12-26T01:40:37.572Z,16.6
2016-12-26T01:41:48.489Z,16.61
2016-12-26T01:42:58.760Z,16.61
2016-12-26T01:44:09.663Z,16.52
2016-12-26T01:45:20.228Z,16.63
2016-12-26T01:46:30.433Z,16.58
2016-12-26T01:47:41.027Z,16.53
2016-12-26T01:48:51.996Z,16.5
2016-12-26T01:50:02.553Z,16.57
2016-12-26T01:51:13.486Z,16.53
2016-12-26T01:52:24.048Z,16.57
2016-12-26T01:53:34.620Z,16.49
2016-12-26T01:54:45.573Z,16.6
2016-12-26T01:55:56.491Z,16.56
2016-12-26T01:57:07.388Z,16.49
2016-12-26T01:58:18.329Z,16.61
2016-12-26T01:59:28.882Z,16.6
2016-12-26T02:00:39.844Z,16.48
2016-12-26T02:01:50.753Z,16.6
2016-12-26T02:03:01.667Z,16.56
2016-12-26T02:04:12.595Z,16.58
2016-12-26T02:05:23.496Z,16.5
2016-12-26T02:06:34.446Z,16.57
2016-12-26T02:07:45.015Z,16.57
2016-12-26T02:08:55.928Z,16.53
2016-12-26T02:10:06.833Z,16.53
2016-12-26T02:11:17.398Z,16.52
2016-12-26T02:12:28.351Z,16.58
2016-12-26T02:13:39.264Z,16.48
2016-12-26T02:14:50.174Z,16.5
2016-12-26T02:16:01.087Z,16.6
2016-12-26T02:17:11.992Z,16.56
2016-12-26T02:18:22.613Z,16.45
2016-12-26T02:19:33.522Z,16.45
2016-12-26T02:20:44.455Z,16.53
2016-12-26T02:21:55.364Z,16.52
2016-12-26T02:23:06.270Z,16.61
2016-12-26T02:24:17.231Z,16.48
2016-12-26T02:25:27.792Z,16.64
2016-12-26T02:26:38.697Z,16.48
2016-12-26T02:27:49.614Z,16.56
2016-12-26T02:29:00.527Z,16.5
2016-12-26T02:30:11.184Z,16.5
2016-12-26T02:31:22.085Z,16.5
2016-12-26T02:32:32.654Z,16.52
2016-12-26T02:33:43.559Z,16.52
2016-12-26T02:34:54.128Z,16.57
2016-12-26T02:36:04.744Z,16.52
2016-12-26T02:37:15.650Z,16.6
2016-12-26T02:38:26.552Z,16.5
2016-12-26T02:39:37.456Z,16.46
2016-12-26T02:40:48.025Z,16.57
2016-12-26T02:41:58.682Z,16.58
2016-12-26T02:43:09.592Z,16.58
2016-12-26T02:44:20.504Z,16.46
2016-12-26T02:45:31.402Z,16.5
2016-12-26T02:46:41.967Z,16.5
2016-12-26T02:47:52.931Z,16.5
2016-12-26T02:49:03.517Z,16.48
2016-12-26T02:50:14.077Z,16.61
2016-12-26T02:51:24.983Z,16.57
2016-12-26T02:52:35.920Z,16.49
2016-12-26T02:53:46.877Z,16.56
2016-12-26T02:54:57.786Z,16.57
2016-12-26T02:56:08.695Z,16.48
2016-12-26T02:57:19.263Z,16.6
2016-12-26T02:58:29.813Z,16.49
2016-12-26T02:59:40.774Z,16.52
2016-12-26T03:00:51.683Z,16.52
2016-12-26T03:02:01.900Z,16.52
2016-12-26T03:03:12.461Z,16.48
2016-12-26T03:04:23.375Z,16.48
2016-12-26T03:05:33.636Z,16.43
2016-12-26T03:06:44.209Z,16.53
2016-12-26T03:07:54.778Z,16.52
2016-12-26T03:09:05.691Z,16.48
2016-12-26T03:10:16.248Z,16.52
2016-12-26T03:11:26.862Z,16.46
2016-12-26T03:12:37.769Z,16.45
2016-12-26T03:13:47.992Z,16.53
2016-12-26T03:14:58.904Z,16.49
2016-12-26T03:16:09.818Z,16.49
2016-12-26T03:17:20.771Z,16.52
2016-12-26T03:18:31.687Z,16.49
2016-12-26T03:19:42.251Z,16.42
2016-12-26T03:20:53.159Z,16.48
2016-12-26T03:22:04.075Z,16.48
2016-12-26T03:23:15.073Z,16.5
2016-12-26T03:24:25.987Z,16.52
2016-12-26T03:25:36.559Z,16.48
2016-12-26T03:26:47.468Z,16.43
2016-12-26T03:27:58.066Z,16.48
2016-12-26T03:29:09.034Z,16.48
2016-12-26T03:30:19.944Z,16.41
2016-12-26T03:31:30.845Z,16.41
2016-12-26T03:32:41.414Z,16.49
2016-12-26T03:33:52.319Z,16.49
2016-12-26T03:35:03.274Z,16.43
2016-12-26T03:36:13.910Z,16.45
2016-12-26T03:37:24.471Z,16.42
2016-12-26T03:38:35.036Z,16.48
2016-12-26T03:39:45.598Z,16.42
2016-12-26T03:40:56.214Z,16.41
2016-12-26T03:42:06.451Z,16.43
2016-12-26T03:43:17.013Z,16.46
2016-12-26T03:44:27.922Z,16.42
2016-12-26T03:45:38.149Z,16.41
2016-12-26T03:46:49.136Z,16.42
2016-12-26T03:47:59.698Z,16.42
2016-12-26T03:49:10.263Z,16.42
2016-12-26T03:50:21.172Z,16.39
2016-12-26T03:51:32.078Z,16.45
2016-12-26T03:52:42.691Z,16.45
2016-12-26T03:53:53.596Z,16.31
2016-12-26T03:55:04.505Z,16.48
2016-12-26T03:56:15.415Z,16.38
2016-12-26T03:57:25.980Z,16.39
2016-12-26T03:58:36.977Z,16.39
2016-12-26T03:59:47.542Z,16.45
2016-12-26T04:00:58.455Z,16.39
2016-12-26T04:02:09.013Z,16.42
2016-12-26T04:03:19.578Z,16.41
2016-12-26T04:04:29.864Z,16.42
2016-12-26T04:05:40.796Z,16.41
2016-12-26T04:06:51.702Z,16.41
2016-12-26T04:08:02.619Z,16.38
2016-12-26T04:09:13.180Z,16.41
2016-12-26T04:10:23.801Z,16.41
2016-12-26T04:11:34.703Z,16.34
2016-12-26T04:12:45.272Z,16.39
2016-12-26T04:13:55.837Z,16.33
2016-12-26T04:15:06.406Z,16.34
2016-12-26T04:16:17.015Z,16.35
2016-12-26T04:17:27.917Z,16.41
2016-12-26T04:18:38.486Z,16.34
2016-12-26T04:19:49.423Z,16.43
2016-12-26T04:20:59.984Z,16.35
2016-12-26T04:22:10.945Z,16.43
2016-12-26T04:23:21.847Z,16.43
2016-12-26T04:24:32.764Z,16.39
2016-12-26T04:25:43.321Z,16.38
2016-12-26T04:26:54.234Z,16.31
2016-12-26T04:28:05.199Z,16.35
2016-12-26T04:29:16.101Z,16.38
2016-12-26T04:30:26.670Z,16.42
2016-12-26T04:31:37.603Z,16.38
2016-12-26T04:32:48.513Z,16.45
2016-12-26T04:33:59.498Z,16.38
2016-12-26T04:35:10.055Z,16.35
2016-12-26T04:36:20.956Z,16.39
2016-12-26T04:37:31.170Z,16.45
2016-12-26T04:38:41.735Z,16.46
2016-12-26T04:39:52.344Z,16.43
2016-12-26T04:41:03.261Z,16.41
2016-12-26T04:42:13.823Z,16.34
2016-12-26T04:43:24.388Z,16.33
2016-12-26T04:44:34.969Z,16.34
2016-12-26T04:45:45.586Z,16.28
2016-12-26T04:46:56.192Z,16.39
2016-12-26T04:48:06.761Z,16.3
2016-12-26T04:49:17.330Z,16.33
2016-12-26T04:50:28.251Z,16.38
2016-12-26T04:51:39.217Z,16.3
2016-12-26T04:52:49.782Z,16.38
2016-12-26T04:54:00.347Z,16.41
2016-12-26T04:55:10.909Z,16.27
2016-12-26T04:56:21.818Z,16.43
2016-12-26T04:57:32.435Z,16.31
2016-12-26T04:58:43.000Z,16.34
2016-12-26T04:59:53.909Z,16.33
2016-12-26T05:01:04.470Z,16.39
2016-12-26T05:02:15.376Z,16.39
2016-12-26T05:03:25.985Z,16.33
2016-12-26T05:04:36.902Z,16.41
2016-12-26T05:05:47.804Z,16.33
2016-12-26T05:06:58.733Z,16.39
2016-12-26T05:08:09.642Z,16.38
2016-12-26T05:09:20.408Z,16.34
2016-12-26T05:10:31.321Z,16.3
2016-12-26T05:11:42.269Z,16.35
2016-12-26T05:12:52.831Z,16.39
2016-12-26T05:14:03.732Z,16.34
2016-12-26T05:15:14.350Z,16.35
2016-12-26T05:16:25.259Z,16.33
2016-12-26T05:17:36.168Z,16.28
2016-12-26T05:18:47.085Z,16.42
2016-12-26T05:19:57.666Z,16.41
2016-12-26T05:21:08.628Z,16.35
2016-12-26T05:22:19.217Z,16.33
2016-12-26T05:23:29.782Z,16.41
2016-12-26T05:24:40.348Z,16.42
2016-12-26T05:25:50.573Z,16.42
2016-12-26T05:27:01.526Z,16.42
2016-12-26T05:28:12.436Z,16.39
2016-12-26T05:29:22.997Z,16.34
2016-12-26T05:30:33.918Z,16.34
2016-12-26T05:31:44.819Z,16.33
2016-12-26T05:32:55.424Z,16.41
2016-12-26T05:34:06.338Z,16.39
2016-12-26T05:35:16.891Z,16.3
2016-12-26T05:36:27.452Z,16.38
2016-12-26T05:37:38.033Z,16.39
2016-12-26T05:38:48.991Z,16.34
2016-12-26T05:39:59.900Z,16.31
2016-12-26T05:41:10.809Z,16.33
2016-12-26T05:42:21.370Z,16.35
2016-12-26T05:43:32.279Z,16.24
2016-12-26T05:44:43.229Z,16.3
2016-12-26T05:45:53.790Z,16.34
2016-12-26T05:47:04.703Z,16.35
2016-12-26T05:48:15.260Z,16.3
2016-12-26T05:49:25.818Z,16.25
2016-12-26T05:50:36.435Z,16.25
2016-12-26T05:51:47.000Z,16.25
2016-12-26T05:52:57.909Z,16.28
2016-12-26T05:54:08.818Z,16.34
2016-12-26T05:55:19.739Z,16.38
2016-12-26T05:56:30.697Z,16.25
2016-12-26T05:57:41.298Z,16.38
2016-12-26T05:58:52.231Z,16.3
2016-12-26T06:00:02.784Z,16.35
2016-12-26T06:01:13.385Z,16.33
2016-12-26T06:02:23.998Z,16.31
2016-12-26T06:03:34.556Z,16.33
2016-12-26T06:04:45.465Z,16.35
2016-12-26T06:05:56.370Z,16.38
2016-12-26T06:07:06.932Z,16.33
2016-12-26T06:08:17.889Z,16.34
2016-12-26T06:09:28.453Z,16.25
2016-12-26T06:10:39.355Z,16.34
2016-12-26T06:11:50.260Z,16.31
2016-12-26T06:13:01.174Z,16.31
2016-12-26T06:14:11.783Z,16.34
2016-12-26T06:15:22.344Z,16.27
2016-12-26T06:16:33.257Z,16.3
2016-12-26T06:17:43.830Z,16.35
2016-12-26T06:18:54.419Z,16.31
2016-12-26T06:20:05.033Z,16.33
2016-12-26T06:21:15.946Z,16.25
2016-12-26T06:22:26.859Z,16.34
2016-12-26T06:23:37.420Z,16.21
2016-12-26T06:24:48.329Z,16.27
2016-12-26T06:25:59.295Z,16.34
2016-12-26T06:27:10.208Z,16.34
2016-12-26T06:28:21.117Z,16.28
2016-12-26T06:29:31.678Z,16.2
2016-12-26T06:30:42.591Z,16.38
2016-12-26T06:31:53.540Z,16.31
2016-12-26T06:33:04.454Z,16.3
2016-12-26T06:34:15.011Z,16.38
2016-12-26T06:35:25.952Z,16.28
2016-12-26T06:36:36.521Z,16.28
2016-12-26T06:37:47.634Z,16.24
2016-12-26T06:38:58.195Z,16.3
2016-12-26T06:40:08.760Z,16.23
2016-12-26T06:41:19.658Z,16.31
2016-12-26T06:42:30.571Z,16.24
2016-12-26T06:43:41.528Z,16.33
2016-12-26T06:44:52.441Z,16.31
2016-12-26T06:46:03.010Z,16.27
2016-12-26T06:47:13.591Z,16.35
2016-12-26T06:48:23.809Z,16.17
2016-12-26T06:49:35.002Z,16.33
2016-12-26T06:50:45.909Z,16.21
2016-12-26T06:51:56.468Z,16.27
2016-12-26T06:53:07.373Z,16.3
2016-12-26T06:54:18.290Z,16.33
2016-12-26T06:55:29.248Z,16.27
2016-12-26T06:56:39.813Z,16.28
2016-12-26T06:57:50.718Z,16.21
2016-12-26T06:59:00.943Z,16.25
2016-12-26T07:00:11.848Z,16.27
2016-12-26T07:01:22.802Z,16.27
2016-12-26T07:02:33.711Z,16.33
2016-12-26T07:03:44.276Z,16.34
2016-12-26T07:04:55.189Z,16.25
2016-12-26T07:06:06.106Z,16.31
2016-12-26T07:07:16.719Z,16.31
2016-12-26T07:08:27.625Z,16.38
2016-12-26T07:09:38.538Z,16.35
2016-12-26T07:10:49.107Z,16.35
2016-12-26T07:11:59.668Z,16.39
2016-12-26T07:13:10.337Z,16.39
2016-12-26T07:14:20.546Z,16.35
2016-12-26T07:15:31.116Z,16.39
2016-12-26T07:16:41.676Z,16.38
2016-12-26T07:17:52.246Z,16.41
2016-12-26T07:19:03.207Z,16.38
2016-12-26T07:20:13.812Z,16.41
2016-12-26T07:21:24.934Z,16.38
2016-12-26T07:22:37.159Z,16.45
2016-12-26T07:23:48.855Z,16.48
2016-12-26T07:25:00.153Z,16.43
2016-12-26T07:26:10.878Z,16.45
2016-12-26T07:27:21.783Z,16.48
2016-12-26T07:28:32.688Z,16.49
2016-12-26T07:29:43.599Z,16.39
2016-12-26T07:30:53.868Z,16.45
2016-12-26T07:32:04.440Z,16.49
2016-12-26T07:33:15.353Z,16.41
2016-12-26T07:34:25.934Z,16.41
2016-12-26T07:35:36.487Z,16.48
2016-12-26T07:36:47.448Z,16.42
2016-12-26T07:37:58.009Z,16.45
2016-12-26T07:39:08.923Z,16.45
2016-12-26T07:40:19.992Z,16.46
2016-12-26T07:41:30.217Z,16.46
2016-12-26T07:42:40.835Z,16.46
2016-12-26T07:43:51.432Z,16.48
2016-12-26T07:45:02.313Z,16.45
2016-12-26T07:46:13.258Z,16.45
2016-12-26T07:47:23.823Z,16.45
2016-12-26T07:48:34.436Z,16.48
2016-12-26T07:49:45.001Z,16.43
2016-12-26T07:50:55.910Z,16.45
2016-12-26T07:52:06.823Z,16.52
2016-12-26T07:53:17.725Z,16.46
2016-12-26T07:54:28.346Z,16.46
2016-12-26T07:55:39.255Z,16.45
2016-12-26T07:56:50.164Z,16.49
2016-12-26T07:58:00.725Z,16.46
2016-12-26T07:59:11.298Z,16.38
2016-12-26T08:00:22.251Z,16.45
2016-12-26T08:01:32.817Z,16.48
2016-12-26T08:02:43.410Z,16.45
2016-12-26T08:03:53.971Z,16.48
2016-12-26T08:05:04.880Z,16.48
2016-12-26T08:06:15.829Z,16.48
2016-12-26T08:07:26.767Z,16.5
2016-12-26T08:08:37.672Z,16.49
2016-12-26T08:09:48.577Z,16.56
2016-12-26T08:10:59.154Z,16.56
2016-12-26T08:12:10.107Z,16.48
2016-12-26T08:13:21.032Z,16.52
2016-12-26T08:14:31.597Z,16.57
2016-12-26T08:15:42.511Z,16.57
2016-12-26T08:16:53.076Z,16.61
2016-12-26T08:18:04.037Z,16.53
2016-12-26T08:19:14.942Z,16.58
2016-12-26T08:20:25.855Z,16.52
2016-12-26T08:21:36.420Z,16.48
2016-12-26T08:22:47.330Z,16.63
2016-12-26T08:23:57.947Z,16.45
2016-12-26T08:25:08.524Z,16.6
2016-12-26T08:26:19.081Z,16.5
2016-12-26T08:27:29.654Z,16.42
2016-12-26T08:28:40.568Z,16.45
2016-12-26T08:29:51.185Z,16.5
2016-12-26T08:31:01.748Z,16.49
2016-12-26T08:32:12.311Z,16.61
2016-12-26T08:33:23.212Z,16.49
2016-12-26T08:34:33.825Z,16.53
2016-12-26T08:35:44.795Z,16.5
2016-12-26T08:36:55.019Z,16.56
2016-12-26T08:38:05.921Z,16.53
2016-12-26T08:39:16.826Z,16.48
2016-12-26T08:40:27.395Z,16.5
2016-12-26T08:41:38.004Z,16.57
2016-12-26T08:42:48.913Z,16.48
2016-12-26T08:43:59.823Z,16.52
2016-12-26T08:45:10.734Z,16.52
2016-12-26T08:46:21.301Z,16.61
2016-12-26T08:47:32.258Z,16.56
2016-12-26T08:48:43.159Z,16.49
2016-12-26T08:49:54.065Z,16.58
2016-12-26T08:51:04.974Z,16.58
2016-12-26T08:52:15.543Z,16.5
2016-12-26T08:53:26.496Z,16.52
2016-12-26T08:54:37.413Z,16.57
2016-12-26T08:55:47.979Z,16.61
2016-12-26T08:56:58.891Z,16.67
2016-12-26T08:58:09.801Z,16.63
2016-12-26T08:59:20.762Z,16.64
2016-12-26T09:00:31.687Z,16.67
2016-12-26T09:01:42.604Z,16.6
2016-12-26T09:02:53.506Z,16.64
2016-12-26T09:04:04.118Z,16.63
2016-12-26T09:05:14.824Z,16.64
2016-12-26T09:06:25.733Z,16.63
2016-12-26T09:07:36.647Z,16.57
2016-12-26T09:08:47.555Z,16.61
2016-12-26T09:09:58.465Z,16.64
2016-12-26T09:11:09.186Z,16.63
2016-12-26T09:12:20.095Z,16.68
2016-12-26T09:13:31.012Z,16.58
2016-12-26T09:14:41.933Z,16.6
2016-12-26T09:15:52.839Z,16.68
2016-12-26T09:17:03.796Z,16.67
2016-12-26T09:18:14.705Z,16.61
2016-12-26T09:19:25.626Z,16.6
2016-12-26T09:20:36.536Z,16.64
2016-12-26T09:21:46.748Z,16.75
2016-12-26T09:22:57.706Z,16.68
2016-12-26T09:24:08.618Z,16.61
2016-12-26T09:25:19.520Z,16.73
2016-12-26T09:26:30.441Z,16.75
2016-12-26T09:27:41.010Z,16.61
2016-12-26T09:28:51.676Z,16.64
2016-12-26T09:30:02.593Z,16.63
2016-12-26T09:31:13.166Z,16.71
2016-12-26T09:32:23.735Z,16.63
2016-12-26T09:33:34.676Z,16.71
2016-12-26T09:34:45.629Z,16.67
2016-12-26T09:35:56.190Z,16.78
2016-12-26T09:37:07.100Z,16.76
2016-12-26T09:38:18.013Z,16.73
2016-12-26T09:39:28.951Z,16.79
2016-12-26T09:40:39.563Z,16.68
2016-12-26T09:41:50.478Z,16.7
2016-12-26T09:43:01.390Z,16.75
2016-12-26T09:44:11.951Z,16.68
2016-12-26T09:45:22.528Z,16.66
2016-12-26T09:46:33.485Z,16.68
2016-12-26T09:47:44.054Z,16.58
2016-12-26T09:48:54.968Z,16.64
2016-12-26T09:50:05.873Z,16.63
2016-12-26T09:51:16.442Z,16.73
2016-12-26T09:52:27.055Z,16.61
2016-12-26T09:53:38.000Z,16.52
2016-12-26T09:54:48.565Z,16.64
2016-12-26T09:55:59.139Z,16.6
2016-12-26T09:57:10.056Z,16.7
2016-12-26T09:58:21.013Z,16.61
2016-12-26T09:59:31.931Z,16.67
2016-12-26T10:00:42.875Z,16.6
2016-12-26T10:01:53.436Z,16.61
2016-12-26T10:03:03.993Z,16.61
2016-12-26T10:04:14.603Z,16.6
2016-12-26T10:05:25.176Z,16.6
2016-12-26T10:06:35.749Z,16.6
2016-12-26T10:07:46.658Z,16.64
2016-12-26T10:08:57.556Z,16.63
2016-12-26T10:10:08.165Z,16.6
2016-12-26T10:11:19.078Z,16.63
2016-12-26T10:12:29.983Z,16.6
2016-12-26T10:13:40.568Z,16.56
2016-12-26T10:14:51.501Z,16.58
2016-12-26T10:16:02.111Z,16.56
2016-12-26T10:17:12.680Z,16.57
2016-12-26T10:18:23.241Z,16.56
2016-12-26T10:19:34.150Z,16.58
2016-12-26T10:20:44.711Z,16.64
2016-12-26T10:21:55.673Z,16.67
2016-12-26T10:23:06.586Z,16.6
2016-12-26T10:24:17.503Z,16.6
2016-12-26T10:25:28.416Z,16.6
2016-12-26T10:26:39.331Z,16.64
2016-12-26T10:27:49.946Z,16.57
2016-12-26T10:29:00.516Z,16.66
2016-12-26T10:30:11.097Z,16.61
2016-12-26T10:31:21.998Z,16.6
2016-12-26T10:32:32.903Z,16.67
2016-12-26T10:33:43.176Z,16.66
2016-12-26T10:34:53.765Z,16.66
2016-12-26T10:36:04.682Z,16.64
2016-12-26T10:37:15.600Z,16.68
2016-12-26T10:38:26.501Z,16.58
2016-12-26T10:39:37.115Z,16.57
2016-12-26T10:40:48.015Z,16.64
2016-12-26T10:41:58.577Z,16.6
2016-12-26T10:43:09.482Z,16.6
2016-12-26T10:44:20.399Z,16.7
2016-12-26T10:45:31.040Z,16.64
2016-12-26T10:46:41.281Z,16.63
2016-12-26T10:47:52.182Z,16.68
2016-12-26T10:49:02.744Z,16.64
2016-12-26T10:50:13.657Z,16.61
2016-12-26T10:51:24.618Z,16.53
2016-12-26T10:52:35.531Z,16.64
2016-12-26T10:53:46.460Z,16.63
2016-12-26T10:54:57.365Z,16.57
2016-12-26T10:56:08.287Z,16.57
2016-12-26T10:57:19.244Z,16.64
2016-12-26T10:58:29.801Z,16.61
2016-12-26T10:59:40.702Z,16.64
2016-12-26T11:00:51.616Z,16.5
2016-12-26T11:02:02.529Z,16.48
2016-12-26T11:03:13.146Z,16.6
2016-12-26T11:04:23.739Z,16.56
2016-12-26T11:05:34.656Z,16.57
2016-12-26T11:06:45.266Z,16.46
2016-12-26T11:07:55.835Z,16.45
2016-12-26T11:09:06.793Z,16.43
2016-12-26T11:10:17.353Z,16.48
2016-12-26T11:11:27.914Z,16.5
2016-12-26T11:12:38.490Z,16.49
2016-12-26T11:13:49.436Z,16.49
2016-12-26T11:15:00.386Z,16.33
2016-12-26T11:16:11.291Z,16.43
2016-12-26T11:17:22.225Z,16.43
2016-12-26T11:18:32.797Z,16.42
2016-12-26T11:19:43.359Z,16.42
2016-12-26T11:20:53.968Z,16.41
2016-12-26T11:22:04.869Z,16.39
2016-12-26T11:23:15.782Z,16.34
2016-12-26T11:24:26.011Z,16.42
2016-12-26T11:25:36.584Z,16.39
2016-12-26T11:26:47.202Z,16.39
2016-12-26T11:27:58.111Z,16.42
2016-12-26T11:29:08.672Z,16.35
2016-12-26T11:30:19.585Z,16.39
2016-12-26T11:31:30.498Z,16.46
2016-12-26T11:32:41.168Z,16.31
2016-12-26T11:33:52.089Z,16.38
2016-12-26T11:35:03.070Z,16.42
2016-12-26T11:36:13.979Z,16.42
2016-12-26T11:37:24.548Z,16.43
2016-12-26T11:38:35.165Z,16.42
2016-12-26T11:39:45.727Z,16.38
2016-12-26T11:40:56.644Z,16.45
2016-12-26T11:42:07.201Z,16.41
2016-12-26T11:43:18.110Z,16.41
2016-12-26T11:44:29.076Z,16.31
2016-12-26T11:45:39.996Z,16.42
2016-12-26T11:46:50.910Z,16.35
2016-12-26T11:48:01.823Z,16.42
2016-12-26T11:49:12.384Z,16.31
2016-12-26T11:50:23.349Z,16.35
2016-12-26T11:51:33.918Z,16.42
2016-12-26T11:52:44.843Z,16.35
2016-12-26T11:53:55.752Z,16.42
2016-12-26T11:55:06.318Z,16.35
2016-12-26T11:56:16.935Z,16.42
2016-12-26T11:57:27.500Z,16.42
2016-12-26T11:58:38.069Z,16.43
2016-12-26T11:59:48.283Z,16.42
2016-12-26T12:00:58.864Z,16.39
2016-12-26T12:02:09.473Z,16.39
2016-12-26T12:03:20.390Z,16.39
2016-12-26T12:04:30.959Z,16.38
2016-12-26T12:05:41.864Z,16.56
2016-12-26T12:06:52.778Z,16.31
2016-12-26T12:08:03.743Z,16.48
2016-12-26T12:09:14.312Z,16.41
2016-12-26T12:10:24.881Z,16.49
2016-12-26T12:11:35.783Z,16.5
2016-12-26T12:12:46.359Z,16.48
2016-12-26T12:13:56.973Z,16.5
2016-12-26T12:15:07.882Z,16.45
2016-12-26T12:16:18.439Z,16.58
2016-12-26T12:17:29.344Z,16.45
2016-12-26T12:18:39.917Z,16.46
2016-12-26T12:19:50.535Z,16.57
2016-12-26T12:21:01.124Z,16.48
2016-12-26T12:22:12.036Z,16.53
2016-12-26T12:23:22.946Z,16.48
2016-12-26T12:24:33.503Z,16.48
2016-12-26T12:25:44.116Z,16.56
2016-12-26T12:26:55.030Z,16.49
2016-12-26T12:28:05.943Z,16.56
2016-12-26T12:29:16.852Z,16.46
2016-12-26T12:30:27.769Z,16.46
2016-12-26T12:31:38.035Z,16.49
2016-12-26T12:32:48.244Z,16.46
2016-12-26T12:33:58.813Z,16.46
2016-12-26T12:35:09.886Z,16.49
2016-12-26T12:36:21.208Z,16.46
2016-12-26T12:37:32.585Z,16.43
2016-12-26T12:38:43.742Z,16.49
2016-12-26T12:39:54.651Z,16.43
2016-12-26T12:41:05.212Z,16.42
2016-12-26T12:42:16.134Z,16.52
2016-12-26T12:43:27.082Z,16.53
2016-12-26T12:44:37.645Z,16.52
2016-12-26T12:45:48.557Z,16.49
2016-12-26T12:46:59.130Z,16.53
2016-12-26T12:48:10.043Z,16.42
2016-12-26T12:49:20.656Z,16.48
2016-12-26T12:50:31.226Z,16.53
2016-12-26T12:51:42.159Z,16.52
2016-12-26T12:52:52.372Z,16.5
2016-12-26T12:54:02.937Z,16.46
2016-12-26T12:55:13.202Z,16.5
2016-12-26T12:56:23.775Z,16.5
2016-12-26T12:57:34.681Z,16.52
2016-12-26T12:58:45.578Z,16.48
2016-12-26T12:59:56.155Z,16.38
2016-12-26T13:01:07.108Z,16.52
2016-12-26T13:02:18.017Z,16.46
2016-12-26T13:03:28.578Z,16.46
2016-12-26T13:04:39.493Z,16.46
2016-12-26T13:05:50.405Z,16.43
2016-12-26T13:07:01.006Z,16.42
2016-12-26T13:08:11.915Z,16.42
2016-12-26T13:09:22.864Z,16.45
2016-12-26T13:10:33.433Z,16.45
2016-12-26T13:11:43.995Z,16.39
2016-12-26T13:12:54.948Z,16.38
2016-12-26T13:14:05.853Z,16.46
2016-12-26T13:15:16.770Z,16.34
2016-12-26T13:16:27.367Z,16.35
2016-12-26T13:17:38.269Z,16.35
2016-12-26T13:18:48.885Z,16.35
2016-12-26T13:19:59.787Z,16.38
2016-12-26T13:21:10.384Z,16.38
2016-12-26T13:22:21.289Z,16.3
2016-12-26T13:23:32.195Z,16.35
2016-12-26T13:24:42.808Z,16.27
2016-12-26T13:25:53.369Z,16.31
2016-12-26T13:27:04.282Z,16.33
2016-12-26T13:28:15.187Z,16.34
2016-12-26T13:29:26.085Z,16.23
2016-12-26T13:30:36.697Z,16.17
2016-12-26T13:31:47.258Z,16.31
2016-12-26T13:32:58.160Z,16.25
2016-12-26T13:34:08.729Z,16.2
2016-12-26T13:35:19.298Z,16.25
2016-12-26T13:36:30.255Z,16.27
2016-12-26T13:37:40.821Z,16.27
2016-12-26T13:38:51.722Z,16.15
2016-12-26T13:40:02.627Z,16.15
2016-12-26T13:41:13.196Z,16.25
2016-12-26T13:42:23.810Z,16.25
2016-12-26T13:43:34.719Z,16.21
2016-12-26T13:44:45.656Z,16.2
2016-12-26T13:45:56.213Z,16.14
2016-12-26T13:47:07.122Z,16.2
2016-12-26T13:48:18.076Z,16.09
2016-12-26T13:49:28.644Z,16.12
2016-12-26T13:50:39.549Z,16.15
2016-12-26T13:51:50.111Z,16.15
2016-12-26T13:53:01.012Z,16.17
2016-12-26T13:54:11.977Z,16.31
2016-12-26T13:55:22.887Z,16.24
2016-12-26T13:56:33.451Z,16.23
2016-12-26T13:57:44.353Z,16.24
2016-12-26T13:58:55.274Z,16.17
2016-12-26T14:00:05.539Z,16.17
2016-12-26T14:01:16.105Z,16.27
2016-12-26T14:02:27.010Z,16.3
2016-12-26T14:03:37.923Z,16.24
2016-12-26T14:04:48.483Z,16.21
2016-12-26T14:05:59.453Z,16.28
2016-12-26T14:07:10.366Z,16.25
2016-12-26T14:08:20.583Z,16.23
2016-12-26T14:09:31.149Z,16.24
2016-12-26T14:10:42.078Z,16.15
2016-12-26T14:11:53.087Z,16.27
2016-12-26T14:13:03.655Z,16.17
2016-12-26T14:14:14.569Z,16.23
2016-12-26T14:15:25.129Z,16.34
2016-12-26T14:16:36.031Z,16.25
2016-12-26T14:17:47.000Z,16.27
2016-12-26T14:18:57.904Z,16.3
2016-12-26T14:20:08.809Z,16.23
2016-12-26T14:21:19.374Z,16.24
2016-12-26T14:22:30.303Z,16.23
2016-12-26T14:23:41.253Z,16.2
2016-12-26T14:24:51.818Z,16.2
2016-12-26T14:26:02.399Z,16.12
2016-12-26T14:27:13.312Z,16.11
2016-12-26T14:28:24.217Z,16.12
2016-12-26T14:29:34.930Z,16.11
2016-12-26T14:30:45.143Z,16.2
2016-12-26T14:31:55.704Z,16.08
2016-12-26T14:33:06.621Z,16.08
2016-12-26T14:34:17.526Z,16.04
2016-12-26T14:35:28.491Z,16.02
2016-12-26T14:36:39.044Z,16.09
2016-12-26T14:37:49.613Z,16.07
2016-12-26T14:39:00.534Z,16.11
2016-12-26T14:40:11.107Z,16.01
2016-12-26T14:41:22.072Z,16
2016-12-26T14:42:32.665Z,16.04
2016-12-26T14:43:43.262Z,16
2016-12-26T14:44:53.815Z,15.97
2016-12-26T14:46:04.033Z,16
2016-12-26T14:47:14.993Z,15.94
2016-12-26T14:48:25.554Z,15.97
2016-12-26T14:49:36.463Z,15.89
2016-12-26T14:50:47.056Z,15.96
2016-12-26T14:51:57.969Z,15.94
2016-12-26T14:53:08.725Z,15.93
2016-12-26T14:54:19.295Z,15.94
2016-12-26T14:55:30.200Z,15.93
2016-12-26T14:56:41.108Z,15.92
2016-12-26T14:57:51.670Z,15.94
2016-12-26T14:59:02.279Z,15.87
2016-12-26T15:00:12.856Z,15.86
2016-12-26T15:01:23.760Z,15.93
2016-12-26T15:02:34.653Z,15.92
2016-12-26T15:03:45.215Z,15.86
2016-12-26T15:04:55.836Z,15.89
2016-12-26T15:06:06.405Z,15.84
2016-12-26T15:07:17.314Z,15.84
2016-12-26T15:08:27.871Z,15.82
2016-12-26T15:09:38.784Z,15.82
2016-12-26T15:10:49.386Z,15.78
2016-12-26T15:11:59.951Z,15.83
2016-12-26T15:13:10.512Z,15.8
2016-12-26T15:14:21.077Z,15.83